sensor_id;sensor_type;location;lat;lon;timestamp;P1;durP1;ratioP1;P2;durP2;ratioP2
12966;SDS011;6548;49.996;8.238;2022-09-03T00:01:38;2.17;;;1.08;;
12966;SDS011;6548;49.996;8.238;2022-09-03T00:04:23;1.70;;;1.33;;
12966;SDS011;6548;49.996;8.238;2022-09-03T00:07:00;1.25;;;0.98;;
12966;SDS011;6548;49.996;8.238;2022-09-03T00:15:10;1.98;;;1.30;;
12966;SDS011;6548;49.996;8.238;2022-09-03T00:17:45;3.00;;;1.08;;
12966;SDS011;6548;49.996;8.238;2022-09-03T00:20:16;2.30;;;1.00;;
12966;SDS011;6548;49.996;8.238;2022-09-03T00:22:50;1.50;;;1.08;;
12966;SDS011;6548;49.996;8.238;2022-09-03T00:25:20;4.53;;;0.98;;
12966;SDS011;6548;49.996;8.238;2022-09-03T00:27:52;1.70;;;1.08;;
12966;SDS011;6548;49.996;8.238;2022-09-03T00:30:21;1.27;;;1.13;;
12966;SDS011;6548;49.996;8.238;2022-09-03T00:32:54;1.33;;;0.98;;
12966;SDS011;6548;49.996;8.238;2022-09-03T00:35:34;6.47;;;1.20;;
12966;SDS011;6548;49.996;8.238;2022-09-03T00:38:07;1.88;;;1.13;;
12966;SDS011;6548;49.996;8.238;2022-09-03T00:43:26;1.48;;;1.00;;
12966;SDS011;6548;49.996;8.238;2022-09-03T00:48:59;5.18;;;1.50;;
12966;SDS011;6548;49.996;8.238;2022-09-03T00:51:58;2.05;;;1.02;;
12966;SDS011;6548;49.996;8.238;2022-09-03T00:54:40;0.80;;;0.73;;
12966;SDS011;6548;49.996;8.238;2022-09-03T01:07:58;2.45;;;1.10;;
12966;SDS011;6548;49.996;8.238;2022-09-03T01:13:24;1.60;;;1.10;;
12966;SDS011;6548;49.996;8.238;2022-09-03T01:20:11;3.50;;;1.42;;
12966;SDS011;6548;49.996;8.238;2022-09-03T01:28:39;2.50;;;1.30;;
12966;SDS011;6548;49.996;8.238;2022-09-03T01:43:35;1.10;;;0.73;;
12966;SDS011;6548;49.996;8.238;2022-09-03T01:45:54;1.92;;;1.25;;
12966;SDS011;6548;49.996;8.238;2022-09-03T01:51:23;4.13;;;1.15;;
12966;SDS011;6548;49.996;8.238;2022-09-03T01:54:09;1.75;;;1.10;;
12966;SDS011;6548;49.996;8.238;2022-09-03T02:02:48;3.42;;;1.13;;
12966;SDS011;6548;49.996;8.238;2022-09-03T02:05:25;4.78;;;1.20;;
12966;SDS011;6548;49.996;8.238;2022-09-03T02:10:30;0.98;;;0.90;;
12966;SDS011;6548;49.996;8.238;2022-09-03T02:13:10;2.47;;;1.10;;
12966;SDS011;6548;49.996;8.238;2022-09-03T02:15:44;1.77;;;1.20;;
12966;SDS011;6548;49.996;8.238;2022-09-03T02:18:28;1.40;;;1.00;;
12966;SDS011;6548;49.996;8.238;2022-09-03T02:21:07;1.17;;;0.90;;
12966;SDS011;6548;49.996;8.238;2022-09-03T02:23:34;1.45;;;1.00;;
12966;SDS011;6548;49.996;8.238;2022-09-03T02:26:03;1.83;;;0.90;;
12966;SDS011;6548;49.996;8.238;2022-09-03T02:28:31;2.17;;;1.00;;
12966;SDS011;6548;49.996;8.238;2022-09-03T02:30:57;0.80;;;0.77;;
12966;SDS011;6548;49.996;8.238;2022-09-03T02:33:23;1.60;;;1.20;;
12966;SDS011;6548;49.996;8.238;2022-09-03T02:35:49;3.10;;;1.13;;
12966;SDS011;6548;49.996;8.238;2022-09-03T02:40:51;2.15;;;1.00;;
12966;SDS011;6548;49.996;8.238;2022-09-03T02:48:43;2.20;;;1.80;;
12966;SDS011;6548;49.996;8.238;2022-09-03T05:52:19;2.28;;;1.58;;
12966;SDS011;6548;49.996;8.238;2022-09-03T05:55:53;1.25;;;1.08;;
12966;SDS011;6548;49.996;8.238;2022-09-03T05:58:19;3.35;;;1.35;;
12966;SDS011;6548;49.996;8.238;2022-09-03T06:00:45;4.03;;;1.30;;
12966;SDS011;6548;49.996;8.238;2022-09-03T06:03:10;3.13;;;1.10;;
12966;SDS011;6548;49.996;8.238;2022-09-03T06:05:36;2.30;;;1.33;;
12966;SDS011;6548;49.996;8.238;2022-09-03T06:08:01;1.83;;;1.17;;
12966;SDS011;6548;49.996;8.238;2022-09-03T06:10:27;4.00;;;1.30;;
12966;SDS011;6548;49.996;8.238;2022-09-03T06:12:53;3.78;;;1.40;;
12966;SDS011;6548;49.996;8.238;2022-09-03T06:15:20;2.75;;;1.67;;
12966;SDS011;6548;49.996;8.238;2022-09-03T06:17:45;1.92;;;1.17;;
12966;SDS011;6548;49.996;8.238;2022-09-03T06:20:11;2.20;;;1.20;;
12966;SDS011;6548;49.996;8.238;2022-09-03T06:22:36;1.63;;;1.25;;
12966;SDS011;6548;49.996;8.238;2022-09-03T06:25:02;2.65;;;1.30;;
12966;SDS011;6548;49.996;8.238;2022-09-03T06:27:28;1.88;;;1.20;;
12966;SDS011;6548;49.996;8.238;2022-09-03T06:29:53;2.38;;;1.42;;
12966;SDS011;6548;49.996;8.238;2022-09-03T06:32:22;1.80;;;1.20;;
12966;SDS011;6548;49.996;8.238;2022-09-03T06:34:48;2.15;;;1.23;;
12966;SDS011;6548;49.996;8.238;2022-09-03T06:37:13;2.20;;;1.50;;
12966;SDS011;6548;49.996;8.238;2022-09-03T06:39:39;1.63;;;1.40;;
12966;SDS011;6548;49.996;8.238;2022-09-03T06:42:04;3.95;;;1.65;;
12966;SDS011;6548;49.996;8.238;2022-09-03T06:44:30;3.78;;;1.67;;
12966;SDS011;6548;49.996;8.238;2022-09-03T06:46:55;2.40;;;1.30;;
12966;SDS011;6548;49.996;8.238;2022-09-03T06:49:25;1.85;;;1.40;;
12966;SDS011;6548;49.996;8.238;2022-09-03T06:51:50;1.50;;;1.40;;
12966;SDS011;6548;49.996;8.238;2022-09-03T06:54:16;2.20;;;1.25;;
12966;SDS011;6548;49.996;8.238;2022-09-03T06:56:42;3.10;;;1.30;;
12966;SDS011;6548;49.996;8.238;2022-09-03T06:59:11;2.03;;;1.40;;
12966;SDS011;6548;49.996;8.238;2022-09-03T07:01:38;1.80;;;1.50;;
12966;SDS011;6548;49.996;8.238;2022-09-03T07:04:06;2.80;;;1.33;;
12966;SDS011;6548;49.996;8.238;2022-09-03T07:06:34;1.73;;;1.30;;
12966;SDS011;6548;49.996;8.238;2022-09-03T07:09:01;2.17;;;1.65;;
12966;SDS011;6548;49.996;8.238;2022-09-03T07:11:27;3.03;;;1.38;;
12966;SDS011;6548;49.996;8.238;2022-09-03T07:13:54;3.35;;;1.45;;
12966;SDS011;6548;49.996;8.238;2022-09-03T07:16:22;2.22;;;1.50;;
12966;SDS011;6548;49.996;8.238;2022-09-03T07:18:50;2.25;;;1.77;;
12966;SDS011;6548;49.996;8.238;2022-09-03T07:21:17;3.60;;;1.60;;
12966;SDS011;6548;49.996;8.238;2022-09-03T07:23:44;3.20;;;2.00;;
12966;SDS011;6548;49.996;8.238;2022-09-03T07:26:13;2.97;;;1.65;;
12966;SDS011;6548;49.996;8.238;2022-09-03T07:28:41;2.22;;;2.00;;
12966;SDS011;6548;49.996;8.238;2022-09-03T07:31:09;5.22;;;2.30;;
12966;SDS011;6548;49.996;8.238;2022-09-03T07:33:37;3.75;;;2.03;;
12966;SDS011;6548;49.996;8.238;2022-09-03T07:36:04;3.95;;;2.08;;
12966;SDS011;6548;49.996;8.238;2022-09-03T07:38:35;2.58;;;2.05;;
12966;SDS011;6548;49.996;8.238;2022-09-03T07:41:02;2.42;;;2.15;;
12966;SDS011;6548;49.996;8.238;2022-09-03T07:43:32;6.53;;;2.35;;
12966;SDS011;6548;49.996;8.238;2022-09-03T07:46:00;3.28;;;1.88;;
12966;SDS011;6548;49.996;8.238;2022-09-03T07:48:25;3.83;;;1.92;;
12966;SDS011;6548;49.996;8.238;2022-09-03T07:50:51;3.70;;;2.35;;
12966;SDS011;6548;49.996;8.238;2022-09-03T07:53:18;3.10;;;2.38;;
12966;SDS011;6548;49.996;8.238;2022-09-03T07:55:45;3.83;;;2.35;;
12966;SDS011;6548;49.996;8.238;2022-09-03T07:58:11;3.10;;;2.42;;
12966;SDS011;6548;49.996;8.238;2022-09-03T08:00:38;5.32;;;2.90;;
12966;SDS011;6548;49.996;8.238;2022-09-03T08:03:04;3.83;;;2.78;;
12966;SDS011;6548;49.996;8.238;2022-09-03T08:05:32;6.00;;;2.58;;
12966;SDS011;6548;49.996;8.238;2022-09-03T08:08:04;6.70;;;2.60;;
12966;SDS011;6548;49.996;8.238;2022-09-03T08:10:34;3.08;;;2.42;;
12966;SDS011;6548;49.996;8.238;2022-09-03T08:13:02;4.38;;;3.08;;
12966;SDS011;6548;49.996;8.238;2022-09-03T08:15:29;5.47;;;3.10;;
12966;SDS011;6548;49.996;8.238;2022-09-03T08:17:55;5.72;;;2.75;;
12966;SDS011;6548;49.996;8.238;2022-09-03T08:20:21;4.53;;;3.03;;
12966;SDS011;6548;49.996;8.238;2022-09-03T08:22:46;3.85;;;3.20;;
12966;SDS011;6548;49.996;8.238;2022-09-03T08:25:12;10.02;;;5.05;;
12966;SDS011;6548;49.996;8.238;2022-09-03T08:27:38;3.20;;;2.58;;
12966;SDS011;6548;49.996;8.238;2022-09-03T08:30:04;3.63;;;2.70;;
12966;SDS011;6548;49.996;8.238;2022-09-03T08:32:33;4.18;;;3.20;;
12966;SDS011;6548;49.996;8.238;2022-09-03T08:34:59;6.55;;;3.67;;
12966;SDS011;6548;49.996;8.238;2022-09-03T08:37:24;5.78;;;3.58;;
12966;SDS011;6548;49.996;8.238;2022-09-03T08:39:52;4.82;;;3.05;;
12966;SDS011;6548;49.996;8.238;2022-09-03T08:42:20;4.10;;;2.85;;
12966;SDS011;6548;49.996;8.238;2022-09-03T08:44:57;4.45;;;2.50;;
12966;SDS011;6548;49.996;8.238;2022-09-03T08:47:28;3.65;;;2.90;;
12966;SDS011;6548;49.996;8.238;2022-09-03T08:49:59;6.05;;;3.30;;
12966;SDS011;6548;49.996;8.238;2022-09-03T08:55:35;2.78;;;2.40;;
12966;SDS011;6548;49.996;8.238;2022-09-03T08:58:05;3.90;;;2.90;;
12966;SDS011;6548;49.996;8.238;2022-09-03T09:00:56;4.78;;;2.70;;
12966;SDS011;6548;49.996;8.238;2022-09-03T09:06:25;4.13;;;2.42;;
12966;SDS011;6548;49.996;8.238;2022-09-03T09:09:02;4.30;;;2.65;;
12966;SDS011;6548;49.996;8.238;2022-09-03T09:17:40;4.03;;;2.55;;
12966;SDS011;6548;49.996;8.238;2022-09-03T09:23:14;4.07;;;2.45;;
12966;SDS011;6548;49.996;8.238;2022-09-03T09:25:54;4.55;;;2.75;;
12966;SDS011;6548;49.996;8.238;2022-09-03T09:28:33;4.45;;;2.38;;
12966;SDS011;6548;49.996;8.238;2022-09-03T09:31:00;3.50;;;2.45;;
12966;SDS011;6548;49.996;8.238;2022-09-03T09:33:28;3.58;;;2.33;;
12966;SDS011;6548;49.996;8.238;2022-09-03T09:35:57;3.70;;;2.47;;
12966;SDS011;6548;49.996;8.238;2022-09-03T09:38:32;5.88;;;2.72;;
12966;SDS011;6548;49.996;8.238;2022-09-03T09:43:39;3.42;;;2.38;;
12966;SDS011;6548;49.996;8.238;2022-09-03T09:48:45;6.38;;;3.00;;
12966;SDS011;6548;49.996;8.238;2022-09-03T09:51:26;3.55;;;2.38;;
12966;SDS011;6548;49.996;8.238;2022-09-03T09:56:26;5.68;;;3.05;;
12966;SDS011;6548;49.996;8.238;2022-09-03T09:59:05;5.35;;;2.50;;
12966;SDS011;6548;49.996;8.238;2022-09-03T10:01:31;3.10;;;2.42;;
12966;SDS011;6548;49.996;8.238;2022-09-03T10:04:07;3.33;;;2.97;;
12966;SDS011;6548;49.996;8.238;2022-09-03T10:06:35;6.15;;;2.45;;
12966;SDS011;6548;49.996;8.238;2022-09-03T10:09:27;4.78;;;3.13;;
12966;SDS011;6548;49.996;8.238;2022-09-03T10:12:08;4.47;;;2.80;;
12966;SDS011;6548;49.996;8.238;2022-09-03T10:17:31;4.28;;;2.70;;
12966;SDS011;6548;49.996;8.238;2022-09-03T10:22:58;3.47;;;2.97;;
12966;SDS011;6548;49.996;8.238;2022-09-03T10:26:09;4.30;;;3.90;;
12966;SDS011;6548;49.996;8.238;2022-09-03T10:28:28;3.72;;;3.25;;
12966;SDS011;6548;49.996;8.238;2022-09-03T10:36:17;3.45;;;3.13;;
12966;SDS011;6548;49.996;8.238;2022-09-03T10:38:57;3.58;;;3.25;;
12966;SDS011;6548;49.996;8.238;2022-09-03T10:41:40;5.72;;;3.67;;
12966;SDS011;6548;49.996;8.238;2022-09-03T10:44:45;4.32;;;3.63;;
12966;SDS011;6548;49.996;8.238;2022-09-03T11:00:59;4.53;;;3.20;;
12966;SDS011;6548;49.996;8.238;2022-09-03T11:08:46;4.13;;;2.97;;
12966;SDS011;6548;49.996;8.238;2022-09-03T11:11:20;4.32;;;3.47;;
12966;SDS011;6548;49.996;8.238;2022-09-03T11:14:09;4.55;;;3.97;;
12966;SDS011;6548;49.996;8.238;2022-09-03T11:16:44;4.00;;;3.60;;
12966;SDS011;6548;49.996;8.238;2022-09-03T11:19:15;4.70;;;3.92;;
12966;SDS011;6548;49.996;8.238;2022-09-03T11:21:44;3.47;;;3.17;;
12966;SDS011;6548;49.996;8.238;2022-09-03T11:24:12;4.15;;;3.50;;
12966;SDS011;6548;49.996;8.238;2022-09-03T11:26:56;4.93;;;4.05;;
12966;SDS011;6548;49.996;8.238;2022-09-03T11:29:32;6.67;;;3.90;;
12966;SDS011;6548;49.996;8.238;2022-09-03T11:32:14;5.70;;;3.45;;
12966;SDS011;6548;49.996;8.238;2022-09-03T11:37:15;4.80;;;4.10;;
12966;SDS011;6548;49.996;8.238;2022-09-03T11:39:52;4.32;;;3.45;;
12966;SDS011;6548;49.996;8.238;2022-09-03T11:42:24;3.78;;;3.35;;
12966;SDS011;6548;49.996;8.238;2022-09-03T11:45:23;8.48;;;3.92;;
12966;SDS011;6548;49.996;8.238;2022-09-03T11:47:52;5.50;;;4.10;;
12966;SDS011;6548;49.996;8.238;2022-09-03T11:50:23;4.65;;;3.15;;
12966;SDS011;6548;49.996;8.238;2022-09-03T11:52:53;3.10;;;2.85;;
12966;SDS011;6548;49.996;8.238;2022-09-03T11:58:11;3.30;;;3.05;;
12966;SDS011;6548;49.996;8.238;2022-09-03T12:00:48;5.85;;;3.35;;
12966;SDS011;6548;49.996;8.238;2022-09-03T12:03:20;3.17;;;2.90;;
12966;SDS011;6548;49.996;8.238;2022-09-03T12:20:10;3.03;;;2.63;;
12966;SDS011;6548;49.996;8.238;2022-09-03T12:22:41;2.90;;;2.70;;
12966;SDS011;6548;49.996;8.238;2022-09-03T12:25:11;4.10;;;3.00;;
12966;SDS011;6548;49.996;8.238;2022-09-03T12:27:39;4.22;;;3.13;;
12966;SDS011;6548;49.996;8.238;2022-09-03T12:30:13;3.10;;;2.70;;
12966;SDS011;6548;49.996;8.238;2022-09-03T12:32:41;4.05;;;2.30;;
12966;SDS011;6548;49.996;8.238;2022-09-03T12:37:43;3.33;;;2.17;;
12966;SDS011;6548;49.996;8.238;2022-09-03T12:40:20;3.15;;;2.53;;
12966;SDS011;6548;49.996;8.238;2022-09-03T12:42:50;3.25;;;2.60;;
12966;SDS011;6548;49.996;8.238;2022-09-03T12:45:20;5.43;;;2.67;;
12966;SDS011;6548;49.996;8.238;2022-09-03T12:47:49;2.53;;;2.30;;
12966;SDS011;6548;49.996;8.238;2022-09-03T12:50:19;4.05;;;2.35;;
12966;SDS011;6548;49.996;8.238;2022-09-03T12:53:07;2.33;;;2.13;;
12966;SDS011;6548;49.996;8.238;2022-09-03T12:55:34;2.17;;;1.92;;
12966;SDS011;6548;49.996;8.238;2022-09-03T12:58:09;2.90;;;2.60;;
12966;SDS011;6548;49.996;8.238;2022-09-03T13:00:37;3.53;;;2.20;;
12966;SDS011;6548;49.996;8.238;2022-09-03T13:05:56;1.75;;;1.60;;
12966;SDS011;6548;49.996;8.238;2022-09-03T13:08:29;3.58;;;1.90;;
12966;SDS011;6548;49.996;8.238;2022-09-03T13:10:58;2.53;;;2.30;;
12966;SDS011;6548;49.996;8.238;2022-09-03T13:13:31;4.85;;;1.52;;
12966;SDS011;6548;49.996;8.238;2022-09-03T13:21:35;1.20;;;1.10;;
12966;SDS011;6548;49.996;8.238;2022-09-03T13:27:12;4.50;;;1.85;;
12966;SDS011;6548;49.996;8.238;2022-09-03T13:34:53;1.58;;;1.42;;
12966;SDS011;6548;49.996;8.238;2022-09-03T13:37:27;2.75;;;1.52;;
12966;SDS011;6548;49.996;8.238;2022-09-03T13:42:40;1.58;;;1.48;;
12966;SDS011;6548;49.996;8.238;2022-09-03T13:48:13;2.03;;;1.60;;
12966;SDS011;6548;49.996;8.238;2022-09-03T13:51:08;1.70;;;1.33;;
12966;SDS011;6548;49.996;8.238;2022-09-03T13:59:49;1.63;;;1.52;;
12966;SDS011;6548;49.996;8.238;2022-09-03T14:07:26;1.75;;;1.45;;
12966;SDS011;6548;49.996;8.238;2022-09-03T14:10:05;2.33;;;2.17;;
12966;SDS011;6548;49.996;8.238;2022-09-03T14:12:45;2.55;;;2.00;;
12966;SDS011;6548;49.996;8.238;2022-09-03T14:15:19;2.00;;;1.80;;
12966;SDS011;6548;49.996;8.238;2022-09-03T14:17:58;2.67;;;2.03;;
12966;SDS011;6548;49.996;8.238;2022-09-03T14:20:43;3.55;;;2.03;;
12966;SDS011;6548;49.996;8.238;2022-09-03T14:25:58;2.25;;;2.05;;
12966;SDS011;6548;49.996;8.238;2022-09-03T14:28:32;2.35;;;2.05;;
12966;SDS011;6548;49.996;8.238;2022-09-03T14:34:11;3.17;;;2.00;;
12966;SDS011;6548;49.996;8.238;2022-09-03T14:42:16;3.33;;;2.30;;
12966;SDS011;6548;49.996;8.238;2022-09-03T14:45:09;2.60;;;2.40;;
12966;SDS011;6548;49.996;8.238;2022-09-03T14:47:59;2.77;;;2.50;;
12966;SDS011;6548;49.996;8.238;2022-09-03T14:51:10;3.20;;;2.40;;
12966;SDS011;6548;49.996;8.238;2022-09-03T14:54:10;2.65;;;2.45;;
12966;SDS011;6548;49.996;8.238;2022-09-03T14:59:27;2.90;;;2.60;;
12966;SDS011;6548;49.996;8.238;2022-09-03T15:07:58;3.95;;;2.47;;
12966;SDS011;6548;49.996;8.238;2022-09-03T15:13:07;2.75;;;2.55;;
12966;SDS011;6548;49.996;8.238;2022-09-03T15:26:08;3.38;;;3.00;;
12966;SDS011;6548;49.996;8.238;2022-09-03T15:29:16;2.03;;;1.92;;
12966;SDS011;6548;49.996;8.238;2022-09-03T15:32:08;2.55;;;2.35;;
12966;SDS011;6548;49.996;8.238;2022-09-03T15:42:35;4.40;;;2.53;;
12966;SDS011;6548;49.996;8.238;2022-09-03T15:45:02;3.00;;;2.67;;
12966;SDS011;6548;49.996;8.238;2022-09-03T15:47:55;2.88;;;2.63;;
12966;SDS011;6548;49.996;8.238;2022-09-03T15:50:46;4.68;;;3.00;;
12966;SDS011;6548;49.996;8.238;2022-09-03T15:53:35;3.05;;;2.53;;
12966;SDS011;6548;49.996;8.238;2022-09-03T15:56:51;2.70;;;2.40;;
12966;SDS011;6548;49.996;8.238;2022-09-03T15:59:39;2.67;;;2.45;;
12966;SDS011;6548;49.996;8.238;2022-09-03T16:02:15;2.50;;;2.10;;
12966;SDS011;6548;49.996;8.238;2022-09-03T16:12:56;1.80;;;1.70;;
12966;SDS011;6548;49.996;8.238;2022-09-03T16:15:44;2.22;;;0.70;;
12966;SDS011;6548;49.996;8.238;2022-09-03T16:18:24;0.13;;;0.10;;
12966;SDS011;6548;49.996;8.238;2022-09-03T16:23:38;0.52;;;0.30;;
12966;SDS011;6548;49.996;8.238;2022-09-03T16:28:52;0.25;;;0.20;;
12966;SDS011;6548;49.996;8.238;2022-09-03T16:34:06;0.10;;;0.10;;
12966;SDS011;6548;49.996;8.238;2022-09-03T16:50:41;0.88;;;0.45;;
12966;SDS011;6548;49.996;8.238;2022-09-03T16:58:47;1.65;;;0.60;;
12966;SDS011;6548;49.996;8.238;2022-09-03T17:09:43;1.98;;;0.60;;
12966;SDS011;6548;49.996;8.238;2022-09-03T17:12:13;2.10;;;0.55;;
12966;SDS011;6548;49.996;8.238;2022-09-03T17:26:32;3.75;;;1.45;;
12966;SDS011;6548;49.996;8.238;2022-09-03T17:29:04;0.60;;;0.50;;
12966;SDS011;6548;49.996;8.238;2022-09-03T17:43:22;1.67;;;0.80;;
12966;SDS011;6548;49.996;8.238;2022-09-03T17:48:51;1.77;;;0.70;;
12966;SDS011;6548;49.996;8.238;2022-09-03T17:54:11;1.45;;;0.85;;
12966;SDS011;6548;49.996;8.238;2022-09-03T18:05:00;0.77;;;0.60;;
12966;SDS011;6548;49.996;8.238;2022-09-03T18:08:05;1.35;;;0.80;;
12966;SDS011;6548;49.996;8.238;2022-09-03T18:13:42;2.00;;;0.60;;
12966;SDS011;6548;49.996;8.238;2022-09-03T18:16:27;2.67;;;0.93;;
12966;SDS011;6548;49.996;8.238;2022-09-03T18:19:01;2.38;;;0.80;;
12966;SDS011;6548;49.996;8.238;2022-09-03T18:21:34;3.95;;;1.25;;
12966;SDS011;6548;49.996;8.238;2022-09-03T18:24:28;2.80;;;0.80;;
12966;SDS011;6548;49.996;8.238;2022-09-03T18:27:21;2.17;;;0.88;;
12966;SDS011;6548;49.996;8.238;2022-09-03T18:30:15;1.90;;;0.80;;
12966;SDS011;6548;49.996;8.238;2022-09-03T18:33:01;1.63;;;0.77;;
12966;SDS011;6548;49.996;8.238;2022-09-03T18:35:45;4.70;;;0.70;;
12966;SDS011;6548;49.996;8.238;2022-09-03T18:38:31;2.13;;;0.70;;
12966;SDS011;6548;49.996;8.238;2022-09-03T18:50:47;2.15;;;0.88;;
12966;SDS011;6548;49.996;8.238;2022-09-03T18:54:08;3.97;;;0.82;;
12966;SDS011;6548;49.996;8.238;2022-09-03T18:56:57;1.67;;;0.80;;
12966;SDS011;6548;49.996;8.238;2022-09-03T18:59:57;1.20;;;0.65;;
12966;SDS011;6548;49.996;8.238;2022-09-03T19:08:56;3.25;;;0.93;;
12966;SDS011;6548;49.996;8.238;2022-09-03T19:15:13;0.75;;;0.73;;
12966;SDS011;6548;49.996;8.238;2022-09-03T19:24:21;2.40;;;1.27;;
12966;SDS011;6548;49.996;8.238;2022-09-03T19:36:19;1.80;;;1.08;;
12966;SDS011;6548;49.996;8.238;2022-09-03T19:51:18;1.80;;;1.20;;
12966;SDS011;6548;49.996;8.238;2022-09-03T19:54:07;3.40;;;1.17;;
12966;SDS011;6548;49.996;8.238;2022-09-03T19:56:53;1.95;;;1.30;;
12966;SDS011;6548;49.996;8.238;2022-09-03T19:59:40;2.88;;;1.38;;
12966;SDS011;6548;49.996;8.238;2022-09-03T20:02:27;1.83;;;1.33;;
12966;SDS011;6548;49.996;8.238;2022-09-03T20:05:20;2.13;;;1.40;;
12966;SDS011;6548;49.996;8.238;2022-09-03T20:08:06;1.77;;;1.40;;
12966;SDS011;6548;49.996;8.238;2022-09-03T20:10:51;1.70;;;1.38;;
12966;SDS011;6548;49.996;8.238;2022-09-03T20:13:20;3.13;;;1.50;;
12966;SDS011;6548;49.996;8.238;2022-09-03T20:18:42;3.08;;;1.80;;
12966;SDS011;6548;49.996;8.238;2022-09-03T20:23:59;4.07;;;2.20;;
12966;SDS011;6548;49.996;8.238;2022-09-03T20:31:52;4.22;;;1.90;;
12966;SDS011;6548;49.996;8.238;2022-09-03T20:36:56;1.60;;;1.50;;
12966;SDS011;6548;49.996;8.238;2022-09-03T20:39:35;2.83;;;1.65;;
12966;SDS011;6548;49.996;8.238;2022-09-03T20:45:03;2.40;;;1.88;;
12966;SDS011;6548;49.996;8.238;2022-09-03T20:53:09;5.28;;;2.10;;
12966;SDS011;6548;49.996;8.238;2022-09-03T20:55:53;3.38;;;1.63;;
12966;SDS011;6548;49.996;8.238;2022-09-03T21:06:32;4.18;;;2.30;;
12966;SDS011;6548;49.996;8.238;2022-09-03T21:17:06;2.78;;;1.67;;
12966;SDS011;6548;49.996;8.238;2022-09-03T21:24:57;1.70;;;1.60;;
12966;SDS011;6548;49.996;8.238;2022-09-03T21:27:35;2.47;;;1.42;;
12966;SDS011;6548;49.996;8.238;2022-09-03T21:30:12;2.05;;;1.70;;
12966;SDS011;6548;49.996;8.238;2022-09-03T21:32:41;4.00;;;2.00;;
12966;SDS011;6548;49.996;8.238;2022-09-03T21:35:20;3.78;;;1.75;;
12966;SDS011;6548;49.996;8.238;2022-09-03T21:37:54;2.17;;;1.52;;
12966;SDS011;6548;49.996;8.238;2022-09-03T21:40:26;2.70;;;2.00;;
12966;SDS011;6548;49.996;8.238;2022-09-03T21:45:37;2.70;;;1.77;;
12966;SDS011;6548;49.996;8.238;2022-09-03T21:48:15;4.05;;;2.55;;
12966;SDS011;6548;49.996;8.238;2022-09-03T21:53:17;3.17;;;2.00;;
12966;SDS011;6548;49.996;8.238;2022-09-03T22:01:23;3.88;;;1.92;;
12966;SDS011;6548;49.996;8.238;2022-09-03T22:04:03;2.97;;;2.03;;
12966;SDS011;6548;49.996;8.238;2022-09-03T22:06:37;2.05;;;1.70;;
12966;SDS011;6548;49.996;8.238;2022-09-03T22:09:09;2.97;;;2.05;;
12966;SDS011;6548;49.996;8.238;2022-09-03T22:11:46;2.90;;;1.90;;
12966;SDS011;6548;49.996;8.238;2022-09-03T22:14:43;5.17;;;2.10;;
12966;SDS011;6548;49.996;8.238;2022-09-03T22:17:34;5.25;;;3.03;;
12966;SDS011;6548;49.996;8.238;2022-09-03T22:20:14;2.67;;;1.77;;
12966;SDS011;6548;49.996;8.238;2022-09-03T22:22:47;4.70;;;1.90;;
12966;SDS011;6548;49.996;8.238;2022-09-03T22:30:28;2.47;;;1.90;;
12966;SDS011;6548;49.996;8.238;2022-09-03T22:36:02;3.38;;;2.22;;
12966;SDS011;6548;49.996;8.238;2022-09-03T22:38:42;4.43;;;2.30;;
12966;SDS011;6548;49.996;8.238;2022-09-03T22:47:21;3.45;;;2.10;;
12966;SDS011;6548;49.996;8.238;2022-09-03T22:52:23;3.80;;;2.13;;
12966;SDS011;6548;49.996;8.238;2022-09-03T22:55:18;3.63;;;2.03;;
12966;SDS011;6548;49.996;8.238;2022-09-03T22:58:04;2.75;;;2.38;;
12966;SDS011;6548;49.996;8.238;2022-09-03T23:00:56;4.40;;;2.15;;
12966;SDS011;6548;49.996;8.238;2022-09-03T23:03:39;3.30;;;2.03;;
12966;SDS011;6548;49.996;8.238;2022-09-03T23:06:11;4.25;;;3.00;;
12966;SDS011;6548;49.996;8.238;2022-09-03T23:08:46;4.60;;;2.15;;
12966;SDS011;6548;49.996;8.238;2022-09-03T23:12:19;4.72;;;2.55;;
12966;SDS011;6548;49.996;8.238;2022-09-03T23:14:21;2.78;;;2.00;;
12966;SDS011;6548;49.996;8.238;2022-09-03T23:17:13;3.10;;;1.88;;
12966;SDS011;6548;49.996;8.238;2022-09-03T23:19:50;4.47;;;2.30;;
12966;SDS011;6548;49.996;8.238;2022-09-03T23:22:39;4.07;;;2.17;;
12966;SDS011;6548;49.996;8.238;2022-09-03T23:25:19;9.30;;;2.15;;
12966;SDS011;6548;49.996;8.238;2022-09-03T23:30:12;8.15;;;2.30;;
12966;SDS011;6548;49.996;8.238;2022-09-03T23:32:38;4.05;;;1.80;;
12966;SDS011;6548;49.996;8.238;2022-09-03T23:35:11;3.72;;;2.17;;
12966;SDS011;6548;49.996;8.238;2022-09-03T23:40:21;2.72;;;2.22;;
12966;SDS011;6548;49.996;8.238;2022-09-03T23:46:00;4.15;;;2.35;;
12966;SDS011;6548;49.996;8.238;2022-09-03T23:51:21;3.67;;;2.17;;
12966;SDS011;6548;49.996;8.238;2022-09-03T23:54:04;4.35;;;2.40;;
12966;SDS011;6548;49.996;8.238;2022-09-03T23:59:50;3.35;;;2.33;;
